sensor_id;sensor_type;location;lat;lon;timestamp;temperature;humidity
37782;DHT22;23621;50.878;4.584;2023-06-10T00:00:12;30.80;45.80
37782;DHT22;23621;50.878;4.584;2023-06-10T00:03:01;30.80;45.90
37782;DHT22;23621;50.878;4.584;2023-06-10T00:05:49;30.70;45.80
37782;DHT22;23621;50.878;4.584;2023-06-10T00:08:36;30.60;45.90
37782;DHT22;23621;50.878;4.584;2023-06-10T00:11:24;30.60;46.10
37782;DHT22;23621;50.878;4.584;2023-06-10T00:14:12;30.60;46.30
37782;DHT22;23621;50.878;4.584;2023-06-10T00:17:00;30.50;46.30
37782;DHT22;23621;50.878;4.584;2023-06-10T00:19:47;30.50;46.40
37782;DHT22;23621;50.878;4.584;2023-06-10T00:22:34;30.50;46.30
37782;DHT22;23621;50.878;4.584;2023-06-10T00:25:22;30.50;46.40
37782;DHT22;23621;50.878;4.584;2023-06-10T00:28:09;30.50;46.50
37782;DHT22;23621;50.878;4.584;2023-06-10T00:30:57;30.40;46.40
37782;DHT22;23621;50.878;4.584;2023-06-10T00:33:44;30.40;46.50
37782;DHT22;23621;50.878;4.584;2023-06-10T00:36:35;30.30;46.90
37782;DHT22;23621;50.878;4.584;2023-06-10T00:39:23;30.20;47.20
37782;DHT22;23621;50.878;4.584;2023-06-10T00:42:10;30.10;47.40
37782;DHT22;23621;50.878;4.584;2023-06-10T00:44:57;30.10;47.50
37782;DHT22;23621;50.878;4.584;2023-06-10T00:47:45;30.00;47.30
37782;DHT22;23621;50.878;4.584;2023-06-10T00:50:32;30.00;47.20
37782;DHT22;23621;50.878;4.584;2023-06-10T00:53:20;30.00;47.00
37782;DHT22;23621;50.878;4.584;2023-06-10T00:56:08;30.00;47.00
37782;DHT22;23621;50.878;4.584;2023-06-10T00:58:56;30.00;47.10
37782;DHT22;23621;50.878;4.584;2023-06-10T01:01:46;30.00;47.00
37782;DHT22;23621;50.878;4.584;2023-06-10T01:04:36;30.00;47.00
37782;DHT22;23621;50.878;4.584;2023-06-10T01:07:27;30.00;47.00
37782;DHT22;23621;50.878;4.584;2023-06-10T01:10:16;29.90;46.90
37782;DHT22;23621;50.878;4.584;2023-06-10T01:13:09;29.90;46.80
37782;DHT22;23621;50.878;4.584;2023-06-10T01:15:58;29.90;46.80
37782;DHT22;23621;50.878;4.584;2023-06-10T01:18:46;29.90;47.10
37782;DHT22;23621;50.878;4.584;2023-06-10T01:21:33;29.80;47.30
37782;DHT22;23621;50.878;4.584;2023-06-10T01:24:21;29.80;47.80
37782;DHT22;23621;50.878;4.584;2023-06-10T01:27:12;29.70;48.10
37782;DHT22;23621;50.878;4.584;2023-06-10T01:30:14;29.60;48.20
37782;DHT22;23621;50.878;4.584;2023-06-10T01:33:07;29.50;48.60
37782;DHT22;23621;50.878;4.584;2023-06-10T01:35:57;29.40;48.90
37782;DHT22;23621;50.878;4.584;2023-06-10T01:38:47;29.20;49.20
37782;DHT22;23621;50.878;4.584;2023-06-10T01:41:35;29.10;49.40
37782;DHT22;23621;50.878;4.584;2023-06-10T01:44:23;29.00;49.70
37782;DHT22;23621;50.878;4.584;2023-06-10T01:47:10;28.90;49.90
37782;DHT22;23621;50.878;4.584;2023-06-10T01:49:58;28.80;50.20
37782;DHT22;23621;50.878;4.584;2023-06-10T01:52:45;28.60;50.40
37782;DHT22;23621;50.878;4.584;2023-06-10T01:55:33;28.50;50.60
37782;DHT22;23621;50.878;4.584;2023-06-10T01:58:21;28.50;50.90
37782;DHT22;23621;50.878;4.584;2023-06-10T02:01:08;28.30;50.90
37782;DHT22;23621;50.878;4.584;2023-06-10T02:03:55;28.30;51.10
37782;DHT22;23621;50.878;4.584;2023-06-10T02:06:43;28.20;51.20
37782;DHT22;23621;50.878;4.584;2023-06-10T02:09:30;28.10;51.40
37782;DHT22;23621;50.878;4.584;2023-06-10T02:12:18;28.00;51.50
37782;DHT22;23621;50.878;4.584;2023-06-10T02:15:05;27.90;51.60
37782;DHT22;23621;50.878;4.584;2023-06-10T02:17:53;27.80;51.80
37782;DHT22;23621;50.878;4.584;2023-06-10T02:20:41;27.70;52.20
37782;DHT22;23621;50.878;4.584;2023-06-10T02:23:29;27.70;52.40
37782;DHT22;23621;50.878;4.584;2023-06-10T02:26:16;27.60;52.60
37782;DHT22;23621;50.878;4.584;2023-06-10T02:29:03;27.50;52.50
37782;DHT22;23621;50.878;4.584;2023-06-10T02:31:50;27.40;52.70
37782;DHT22;23621;50.878;4.584;2023-06-10T02:34:40;27.30;52.90
37782;DHT22;23621;50.878;4.584;2023-06-10T02:37:27;27.30;53.00
37782;DHT22;23621;50.878;4.584;2023-06-10T02:40:14;27.30;53.10
37782;DHT22;23621;50.878;4.584;2023-06-10T02:43:02;27.20;53.20
37782;DHT22;23621;50.878;4.584;2023-06-10T02:45:49;27.10;53.30
37782;DHT22;23621;50.878;4.584;2023-06-10T02:48:43;27.10;53.50
37782;DHT22;23621;50.878;4.584;2023-06-10T02:51:30;27.10;53.60
37782;DHT22;23621;50.878;4.584;2023-06-10T02:54:18;27.00;53.60
37782;DHT22;23621;50.878;4.584;2023-06-10T02:57:05;27.00;53.90
37782;DHT22;23621;50.878;4.584;2023-06-10T02:59:53;26.90;53.80
37782;DHT22;23621;50.878;4.584;2023-06-10T03:02:40;26.90;53.90
37782;DHT22;23621;50.878;4.584;2023-06-10T03:05:31;26.80;54.00
37782;DHT22;23621;50.878;4.584;2023-06-10T03:08:19;26.80;54.20
37782;DHT22;23621;50.878;4.584;2023-06-10T03:11:07;26.80;54.30
37782;DHT22;23621;50.878;4.584;2023-06-10T03:13:57;26.70;54.30
37782;DHT22;23621;50.878;4.584;2023-06-10T03:16:44;26.70;54.40
37782;DHT22;23621;50.878;4.584;2023-06-10T03:19:32;26.70;54.70
37782;DHT22;23621;50.878;4.584;2023-06-10T03:22:20;26.60;54.70
37782;DHT22;23621;50.878;4.584;2023-06-10T03:25:08;26.60;55.50
37782;DHT22;23621;50.878;4.584;2023-06-10T03:28:01;26.50;54.80
37782;DHT22;23621;50.878;4.584;2023-06-10T03:30:48;26.50;54.90
37782;DHT22;23621;50.878;4.584;2023-06-10T03:33:36;26.40;55.00
37782;DHT22;23621;50.878;4.584;2023-06-10T03:36:26;26.40;55.20
37782;DHT22;23621;50.878;4.584;2023-06-10T03:39:16;26.30;55.30
37782;DHT22;23621;50.878;4.584;2023-06-10T03:42:03;26.20;55.40
37782;DHT22;23621;50.878;4.584;2023-06-10T03:44:51;26.20;55.60
37782;DHT22;23621;50.878;4.584;2023-06-10T03:47:39;26.10;55.80
37782;DHT22;23621;50.878;4.584;2023-06-10T03:50:27;26.10;55.90
37782;DHT22;23621;50.878;4.584;2023-06-10T03:53:15;26.00;56.00
37782;DHT22;23621;50.878;4.584;2023-06-10T03:56:02;26.00;56.10
37782;DHT22;23621;50.878;4.584;2023-06-10T03:58:49;25.90;56.20
37782;DHT22;23621;50.878;4.584;2023-06-10T04:01:37;25.90;56.40
37782;DHT22;23621;50.878;4.584;2023-06-10T04:04:25;25.80;56.50
37782;DHT22;23621;50.878;4.584;2023-06-10T04:07:12;25.80;56.60
37782;DHT22;23621;50.878;4.584;2023-06-10T04:10:01;25.80;56.70
37782;DHT22;23621;50.878;4.584;2023-06-10T04:12:48;25.80;56.70
37782;DHT22;23621;50.878;4.584;2023-06-10T04:15:35;25.80;56.80
37782;DHT22;23621;50.878;4.584;2023-06-10T04:18:23;25.80;57.00
37782;DHT22;23621;50.878;4.584;2023-06-10T04:21:10;25.80;57.00
37782;DHT22;23621;50.878;4.584;2023-06-10T04:23:58;25.80;57.20
37782;DHT22;23621;50.878;4.584;2023-06-10T04:26:45;25.80;57.40
37782;DHT22;23621;50.878;4.584;2023-06-10T04:29:33;25.80;57.60
37782;DHT22;23621;50.878;4.584;2023-06-10T04:32:20;25.80;57.60
37782;DHT22;23621;50.878;4.584;2023-06-10T04:35:11;25.80;57.60
37782;DHT22;23621;50.878;4.584;2023-06-10T04:37:59;25.80;57.90
37782;DHT22;23621;50.878;4.584;2023-06-10T04:40:47;25.80;58.10
37782;DHT22;23621;50.878;4.584;2023-06-10T04:43:34;25.80;58.30
37782;DHT22;23621;50.878;4.584;2023-06-10T04:46:22;25.80;58.50
37782;DHT22;23621;50.878;4.584;2023-06-10T04:49:09;25.80;58.70
37782;DHT22;23621;50.878;4.584;2023-06-10T04:51:57;25.80;58.90
37782;DHT22;23621;50.878;4.584;2023-06-10T04:54:44;25.80;59.00
37782;DHT22;23621;50.878;4.584;2023-06-10T04:57:32;25.90;59.20
37782;DHT22;23621;50.878;4.584;2023-06-10T05:00:19;26.00;59.20
37782;DHT22;23621;50.878;4.584;2023-06-10T05:03:06;26.00;59.20
37782;DHT22;23621;50.878;4.584;2023-06-10T05:05:54;26.00;59.20
37782;DHT22;23621;50.878;4.584;2023-06-10T05:08:41;26.10;59.20
37782;DHT22;23621;50.878;4.584;2023-06-10T05:11:28;26.10;59.10
37782;DHT22;23621;50.878;4.584;2023-06-10T05:14:15;26.10;59.20
37782;DHT22;23621;50.878;4.584;2023-06-10T05:17:06;26.20;59.40
37782;DHT22;23621;50.878;4.584;2023-06-10T05:19:53;26.30;59.30
37782;DHT22;23621;50.878;4.584;2023-06-10T05:22:40;26.40;59.10
37782;DHT22;23621;50.878;4.584;2023-06-10T05:25:30;26.40;58.90
37782;DHT22;23621;50.878;4.584;2023-06-10T05:28:18;26.50;59.00
37782;DHT22;23621;50.878;4.584;2023-06-10T05:31:05;26.60;59.10
37782;DHT22;23621;50.878;4.584;2023-06-10T05:33:52;26.70;59.20
37782;DHT22;23621;50.878;4.584;2023-06-10T05:36:40;26.70;59.30
37782;DHT22;23621;50.878;4.584;2023-06-10T05:39:27;26.80;59.40
37782;DHT22;23621;50.878;4.584;2023-06-10T05:42:14;26.90;59.40
37782;DHT22;23621;50.878;4.584;2023-06-10T05:45:02;26.90;59.10
37782;DHT22;23621;50.878;4.584;2023-06-10T05:47:50;27.10;58.80
37782;DHT22;23621;50.878;4.584;2023-06-10T05:50:37;27.20;58.40
37782;DHT22;23621;50.878;4.584;2023-06-10T05:53:27;27.20;58.10
37782;DHT22;23621;50.878;4.584;2023-06-10T05:56:14;27.30;57.70
37782;DHT22;23621;50.878;4.584;2023-06-10T05:59:01;27.40;57.70
37782;DHT22;23621;50.878;4.584;2023-06-10T06:01:49;27.40;57.50
37782;DHT22;23621;50.878;4.584;2023-06-10T06:04:39;27.50;57.30
37782;DHT22;23621;50.878;4.584;2023-06-10T06:07:26;27.50;57.00
37782;DHT22;23621;50.878;4.584;2023-06-10T06:10:16;27.60;56.90
37782;DHT22;23621;50.878;4.584;2023-06-10T06:13:03;27.60;56.80
37782;DHT22;23621;50.878;4.584;2023-06-10T06:15:51;27.70;57.00
37782;DHT22;23621;50.878;4.584;2023-06-10T06:18:38;27.70;56.80
37782;DHT22;23621;50.878;4.584;2023-06-10T06:21:25;27.80;56.70
37782;DHT22;23621;50.878;4.584;2023-06-10T06:24:13;27.80;56.60
37782;DHT22;23621;50.878;4.584;2023-06-10T06:27:01;27.90;56.50
37782;DHT22;23621;50.878;4.584;2023-06-10T06:29:48;27.90;56.40
37782;DHT22;23621;50.878;4.584;2023-06-10T06:32:37;28.00;56.80
37782;DHT22;23621;50.878;4.584;2023-06-10T06:35:24;28.00;56.90
37782;DHT22;23621;50.878;4.584;2023-06-10T06:38:11;28.10;56.90
37782;DHT22;23621;50.878;4.584;2023-06-10T06:40:59;28.10;56.70
37782;DHT22;23621;50.878;4.584;2023-06-10T06:43:50;28.20;56.40
37782;DHT22;23621;50.878;4.584;2023-06-10T06:46:37;28.20;56.30
37782;DHT22;23621;50.878;4.584;2023-06-10T06:49:24;28.30;56.20
37782;DHT22;23621;50.878;4.584;2023-06-10T06:52:12;28.40;55.90
37782;DHT22;23621;50.878;4.584;2023-06-10T06:54:59;28.40;55.80
37782;DHT22;23621;50.878;4.584;2023-06-10T06:57:47;28.50;55.80
37782;DHT22;23621;50.878;4.584;2023-06-10T07:00:34;28.60;55.90
37782;DHT22;23621;50.878;4.584;2023-06-10T07:03:21;28.60;55.90
37782;DHT22;23621;50.878;4.584;2023-06-10T07:06:08;28.60;55.60
37782;DHT22;23621;50.878;4.584;2023-06-10T07:08:56;28.70;55.80
37782;DHT22;23621;50.878;4.584;2023-06-10T07:11:43;28.70;55.90
37782;DHT22;23621;50.878;4.584;2023-06-10T07:14:30;28.80;55.70
37782;DHT22;23621;50.878;4.584;2023-06-10T07:17:18;28.90;55.30
37782;DHT22;23621;50.878;4.584;2023-06-10T07:20:05;28.90;54.50
37782;DHT22;23621;50.878;4.584;2023-06-10T07:22:53;28.90;54.60
37782;DHT22;23621;50.878;4.584;2023-06-10T07:25:41;28.90;54.50
37782;DHT22;23621;50.878;4.584;2023-06-10T07:28:28;29.00;54.60
37782;DHT22;23621;50.878;4.584;2023-06-10T07:31:16;29.10;54.60
37782;DHT22;23621;50.878;4.584;2023-06-10T07:34:03;29.10;54.70
37782;DHT22;23621;50.878;4.584;2023-06-10T07:36:50;29.20;54.60
37782;DHT22;23621;50.878;4.584;2023-06-10T07:39:38;29.30;54.40
37782;DHT22;23621;50.878;4.584;2023-06-10T07:42:25;29.30;54.20
37782;DHT22;23621;50.878;4.584;2023-06-10T07:45:12;29.30;54.20
37782;DHT22;23621;50.878;4.584;2023-06-10T07:47:59;29.40;54.30
37782;DHT22;23621;50.878;4.584;2023-06-10T07:50:47;29.50;54.60
37782;DHT22;23621;50.878;4.584;2023-06-10T07:53:34;29.50;54.00
37782;DHT22;23621;50.878;4.584;2023-06-10T07:56:21;29.50;53.60
37782;DHT22;23621;50.878;4.584;2023-06-10T07:59:09;29.60;53.90
37782;DHT22;23621;50.878;4.584;2023-06-10T08:01:56;29.70;54.00
37782;DHT22;23621;50.878;4.584;2023-06-10T08:04:43;29.70;53.80
37782;DHT22;23621;50.878;4.584;2023-06-10T08:07:31;29.80;53.60
37782;DHT22;23621;50.878;4.584;2023-06-10T08:10:19;29.90;53.40
37782;DHT22;23621;50.878;4.584;2023-06-10T08:13:08;29.90;53.90
37782;DHT22;23621;50.878;4.584;2023-06-10T08:15:55;30.00;53.50
37782;DHT22;23621;50.878;4.584;2023-06-10T08:18:42;30.10;53.10
37782;DHT22;23621;50.878;4.584;2023-06-10T08:21:29;30.10;53.00
37782;DHT22;23621;50.878;4.584;2023-06-10T08:24:17;30.20;52.90
37782;DHT22;23621;50.878;4.584;2023-06-10T08:27:06;30.30;53.20
37782;DHT22;23621;50.878;4.584;2023-06-10T08:29:53;30.30;53.20
37782;DHT22;23621;50.878;4.584;2023-06-10T08:32:40;30.40;53.40
37782;DHT22;23621;50.878;4.584;2023-06-10T08:35:28;30.50;53.20
37782;DHT22;23621;50.878;4.584;2023-06-10T08:38:15;30.60;52.90
37782;DHT22;23621;50.878;4.584;2023-06-10T08:41:05;30.60;53.30
37782;DHT22;23621;50.878;4.584;2023-06-10T08:44:08;30.70;52.90
37782;DHT22;23621;50.878;4.584;2023-06-10T08:46:59;30.80;52.30
37782;DHT22;23621;50.878;4.584;2023-06-10T08:49:47;30.80;52.20
37782;DHT22;23621;50.878;4.584;2023-06-10T08:52:36;30.90;52.20
37782;DHT22;23621;50.878;4.584;2023-06-10T08:55:33;31.00;52.20
37782;DHT22;23621;50.878;4.584;2023-06-10T08:58:22;31.00;51.90
37782;DHT22;23621;50.878;4.584;2023-06-10T09:01:09;31.10;52.20
37782;DHT22;23621;50.878;4.584;2023-06-10T09:03:59;31.20;51.80
37782;DHT22;23621;50.878;4.584;2023-06-10T09:06:47;31.20;52.20
37782;DHT22;23621;50.878;4.584;2023-06-10T09:09:38;31.30;51.80
37782;DHT22;23621;50.878;4.584;2023-06-10T09:12:25;31.40;51.70
37782;DHT22;23621;50.878;4.584;2023-06-10T09:15:13;31.40;51.50
37782;DHT22;23621;50.878;4.584;2023-06-10T09:18:01;31.50;51.70
37782;DHT22;23621;50.878;4.584;2023-06-10T09:20:49;31.60;51.50
37782;DHT22;23621;50.878;4.584;2023-06-10T09:23:37;31.60;50.50
37782;DHT22;23621;50.878;4.584;2023-06-10T09:26:28;31.70;50.70
37782;DHT22;23621;50.878;4.584;2023-06-10T09:29:17;31.80;49.70
37782;DHT22;23621;50.878;4.584;2023-06-10T09:32:05;31.90;49.10
37782;DHT22;23621;50.878;4.584;2023-06-10T09:34:55;31.90;49.20
37782;DHT22;23621;50.878;4.584;2023-06-10T09:37:44;32.00;49.10
37782;DHT22;23621;50.878;4.584;2023-06-10T09:40:31;32.00;49.60
37782;DHT22;23621;50.878;4.584;2023-06-10T09:43:19;32.10;49.40
37782;DHT22;23621;50.878;4.584;2023-06-10T09:46:06;32.10;49.10
37782;DHT22;23621;50.878;4.584;2023-06-10T09:48:54;32.20;48.80
37782;DHT22;23621;50.878;4.584;2023-06-10T09:51:52;32.20;48.10
37782;DHT22;23621;50.878;4.584;2023-06-10T09:54:39;32.30;48.20
37782;DHT22;23621;50.878;4.584;2023-06-10T09:57:31;32.30;48.40
37782;DHT22;23621;50.878;4.584;2023-06-10T10:00:22;32.40;48.00
37782;DHT22;23621;50.878;4.584;2023-06-10T10:03:10;32.40;47.60
37782;DHT22;23621;50.878;4.584;2023-06-10T10:06:09;32.50;47.70
37782;DHT22;23621;50.878;4.584;2023-06-10T10:08:56;32.60;48.40
37782;DHT22;23621;50.878;4.584;2023-06-10T10:11:44;32.60;48.40
37782;DHT22;23621;50.878;4.584;2023-06-10T10:14:33;32.70;48.50
37782;DHT22;23621;50.878;4.584;2023-06-10T10:17:20;32.70;47.50
37782;DHT22;23621;50.878;4.584;2023-06-10T10:20:12;32.80;45.80
37782;DHT22;23621;50.878;4.584;2023-06-10T10:23:03;32.80;44.90
37782;DHT22;23621;50.878;4.584;2023-06-10T10:25:55;32.80;45.40
37782;DHT22;23621;50.878;4.584;2023-06-10T10:28:51;32.90;46.80
37782;DHT22;23621;50.878;4.584;2023-06-10T10:31:41;33.00;46.30
37782;DHT22;23621;50.878;4.584;2023-06-10T10:34:53;33.00;46.60
37782;DHT22;23621;50.878;4.584;2023-06-10T10:37:44;33.10;46.30
37782;DHT22;23621;50.878;4.584;2023-06-10T10:40:32;33.20;46.10
37782;DHT22;23621;50.878;4.584;2023-06-10T10:43:20;33.20;44.80
37782;DHT22;23621;50.878;4.584;2023-06-10T10:46:12;33.20;44.20
37782;DHT22;23621;50.878;4.584;2023-06-10T10:49:01;33.30;44.60
37782;DHT22;23621;50.878;4.584;2023-06-10T10:52:02;33.30;45.10
37782;DHT22;23621;50.878;4.584;2023-06-10T10:54:53;33.40;46.20
37782;DHT22;23621;50.878;4.584;2023-06-10T10:57:41;33.40;44.90
37782;DHT22;23621;50.878;4.584;2023-06-10T11:00:37;33.40;44.10
37782;DHT22;23621;50.878;4.584;2023-06-10T11:03:29;33.50;45.20
37782;DHT22;23621;50.878;4.584;2023-06-10T11:06:19;33.50;44.30
37782;DHT22;23621;50.878;4.584;2023-06-10T11:09:26;33.60;44.80
37782;DHT22;23621;50.878;4.584;2023-06-10T11:12:22;33.60;42.70
37782;DHT22;23621;50.878;4.584;2023-06-10T11:15:22;33.60;43.50
37782;DHT22;23621;50.878;4.584;2023-06-10T11:21:03;33.70;42.60
37782;DHT22;23621;50.878;4.584;2023-06-10T11:23:54;33.70;42.90
37782;DHT22;23621;50.878;4.584;2023-06-10T11:26:44;33.80;42.90
37782;DHT22;23621;50.878;4.584;2023-06-10T11:29:32;33.80;42.70
37782;DHT22;23621;50.878;4.584;2023-06-10T11:32:19;33.80;42.00
37782;DHT22;23621;50.878;4.584;2023-06-10T11:35:07;33.80;42.00
37782;DHT22;23621;50.878;4.584;2023-06-10T11:37:55;33.90;42.90
37782;DHT22;23621;50.878;4.584;2023-06-10T11:40:48;34.00;42.40
37782;DHT22;23621;50.878;4.584;2023-06-10T11:43:46;34.00;43.00
37782;DHT22;23621;50.878;4.584;2023-06-10T11:46:34;34.10;43.10
37782;DHT22;23621;50.878;4.584;2023-06-10T11:49:21;34.20;43.20
37782;DHT22;23621;50.878;4.584;2023-06-10T11:52:09;34.30;43.70
37782;DHT22;23621;50.878;4.584;2023-06-10T11:54:56;34.30;42.90
37782;DHT22;23621;50.878;4.584;2023-06-10T11:57:43;34.30;42.10
37782;DHT22;23621;50.878;4.584;2023-06-10T12:00:31;34.30;41.90
37782;DHT22;23621;50.878;4.584;2023-06-10T12:03:18;34.30;41.60
37782;DHT22;23621;50.878;4.584;2023-06-10T12:06:06;34.30;41.70
37782;DHT22;23621;50.878;4.584;2023-06-10T12:08:54;34.30;41.20
37782;DHT22;23621;50.878;4.584;2023-06-10T12:12:04;34.30;40.70
37782;DHT22;23621;50.878;4.584;2023-06-10T12:14:56;34.50;40.60
37782;DHT22;23621;50.878;4.584;2023-06-10T12:17:44;34.50;41.00
37782;DHT22;23621;50.878;4.584;2023-06-10T12:20:33;34.50;40.40
37782;DHT22;23621;50.878;4.584;2023-06-10T12:23:23;34.60;41.40
37782;DHT22;23621;50.878;4.584;2023-06-10T12:26:10;34.70;41.40
37782;DHT22;23621;50.878;4.584;2023-06-10T12:28:57;34.80;41.00
37782;DHT22;23621;50.878;4.584;2023-06-10T12:32:04;34.90;40.50
37782;DHT22;23621;50.878;4.584;2023-06-10T12:35:03;34.90;41.10
37782;DHT22;23621;50.878;4.584;2023-06-10T12:37:59;34.90;40.40
37782;DHT22;23621;50.878;4.584;2023-06-10T12:40:50;35.00;39.90
37782;DHT22;23621;50.878;4.584;2023-06-10T12:43:39;35.00;40.00
37782;DHT22;23621;50.878;4.584;2023-06-10T12:46:36;35.00;40.00
37782;DHT22;23621;50.878;4.584;2023-06-10T12:49:23;34.90;38.80
37782;DHT22;23621;50.878;4.584;2023-06-10T12:52:11;34.80;38.90
37782;DHT22;23621;50.878;4.584;2023-06-10T12:54:58;34.80;39.00
37782;DHT22;23621;50.878;4.584;2023-06-10T12:57:48;34.90;40.60
37782;DHT22;23621;50.878;4.584;2023-06-10T13:00:36;35.00;41.10
37782;DHT22;23621;50.878;4.584;2023-06-10T13:03:23;35.10;39.60
37782;DHT22;23621;50.878;4.584;2023-06-10T13:06:11;35.20;39.20
37782;DHT22;23621;50.878;4.584;2023-06-10T13:08:58;35.20;38.80
37782;DHT22;23621;50.878;4.584;2023-06-10T13:11:46;35.30;39.40
37782;DHT22;23621;50.878;4.584;2023-06-10T13:14:33;35.40;38.90
37782;DHT22;23621;50.878;4.584;2023-06-10T13:17:21;35.40;38.80
37782;DHT22;23621;50.878;4.584;2023-06-10T13:20:09;35.40;38.90
37782;DHT22;23621;50.878;4.584;2023-06-10T13:22:56;35.50;38.60
37782;DHT22;23621;50.878;4.584;2023-06-10T13:25:44;35.50;37.70
37782;DHT22;23621;50.878;4.584;2023-06-10T13:28:31;35.50;38.20
37782;DHT22;23621;50.878;4.584;2023-06-10T13:31:22;35.40;38.30
37782;DHT22;23621;50.878;4.584;2023-06-10T13:34:09;35.30;38.00
37782;DHT22;23621;50.878;4.584;2023-06-10T13:36:57;35.40;38.40
37782;DHT22;23621;50.878;4.584;2023-06-10T13:39:45;35.40;38.20
37782;DHT22;23621;50.878;4.584;2023-06-10T13:42:38;35.50;38.70
37782;DHT22;23621;50.878;4.584;2023-06-10T13:45:26;35.60;38.80
37782;DHT22;23621;50.878;4.584;2023-06-10T13:48:13;35.60;38.50
37782;DHT22;23621;50.878;4.584;2023-06-10T13:51:00;35.60;38.10
37782;DHT22;23621;50.878;4.584;2023-06-10T13:53:48;35.70;37.40
37782;DHT22;23621;50.878;4.584;2023-06-10T13:56:35;35.70;37.70
37782;DHT22;23621;50.878;4.584;2023-06-10T13:59:26;35.80;37.40
37782;DHT22;23621;50.878;4.584;2023-06-10T14:02:13;35.80;37.70
37782;DHT22;23621;50.878;4.584;2023-06-10T14:05:01;35.80;38.00
37782;DHT22;23621;50.878;4.584;2023-06-10T14:07:48;35.80;37.70
37782;DHT22;23621;50.878;4.584;2023-06-10T14:10:36;35.90;37.40
37782;DHT22;23621;50.878;4.584;2023-06-10T14:13:23;35.90;36.80
37782;DHT22;23621;50.878;4.584;2023-06-10T14:16:10;36.00;37.30
37782;DHT22;23621;50.878;4.584;2023-06-10T14:18:57;36.00;37.50
37782;DHT22;23621;50.878;4.584;2023-06-10T14:21:45;36.00;37.50
37782;DHT22;23621;50.878;4.584;2023-06-10T14:24:32;36.00;37.60
37782;DHT22;23621;50.878;4.584;2023-06-10T14:27:19;36.00;37.40
37782;DHT22;23621;50.878;4.584;2023-06-10T14:30:08;36.00;36.20
37782;DHT22;23621;50.878;4.584;2023-06-10T14:32:55;36.10;36.70
37782;DHT22;23621;50.878;4.584;2023-06-10T14:35:42;36.10;36.90
37782;DHT22;23621;50.878;4.584;2023-06-10T14:38:30;36.20;36.60
37782;DHT22;23621;50.878;4.584;2023-06-10T14:41:17;36.10;36.60
37782;DHT22;23621;50.878;4.584;2023-06-10T14:44:04;36.10;36.60
37782;DHT22;23621;50.878;4.584;2023-06-10T14:46:52;36.10;35.40
37782;DHT22;23621;50.878;4.584;2023-06-10T14:49:39;36.20;35.90
37782;DHT22;23621;50.878;4.584;2023-06-10T14:52:29;36.20;36.40
37782;DHT22;23621;50.878;4.584;2023-06-10T14:55:16;36.30;36.10
37782;DHT22;23621;50.878;4.584;2023-06-10T14:58:03;36.30;36.60
37782;DHT22;23621;50.878;4.584;2023-06-10T15:00:50;36.30;37.10
37782;DHT22;23621;50.878;4.584;2023-06-10T15:03:38;36.40;36.80
37782;DHT22;23621;50.878;4.584;2023-06-10T15:06:26;36.40;36.60
37782;DHT22;23621;50.878;4.584;2023-06-10T15:09:13;36.40;36.40
37782;DHT22;23621;50.878;4.584;2023-06-10T15:12:01;36.40;36.40
37782;DHT22;23621;50.878;4.584;2023-06-10T15:14:48;36.50;36.40
37782;DHT22;23621;50.878;4.584;2023-06-10T15:17:35;36.50;37.30
37782;DHT22;23621;50.878;4.584;2023-06-10T15:20:23;36.60;36.60
37782;DHT22;23621;50.878;4.584;2023-06-10T15:23:10;36.50;36.40
37782;DHT22;23621;50.878;4.584;2023-06-10T15:25:58;36.60;36.80
37782;DHT22;23621;50.878;4.584;2023-06-10T15:28:45;36.60;37.00
37782;DHT22;23621;50.878;4.584;2023-06-10T15:31:36;36.70;36.90
37782;DHT22;23621;50.878;4.584;2023-06-10T15:34:23;36.80;36.50
37782;DHT22;23621;50.878;4.584;2023-06-10T15:37:11;36.80;36.80
37782;DHT22;23621;50.878;4.584;2023-06-10T15:39:58;37.00;37.00
37782;DHT22;23621;50.878;4.584;2023-06-10T15:42:45;37.60;35.90
37782;DHT22;23621;50.878;4.584;2023-06-10T15:45:32;38.70;35.00
37782;DHT22;23621;50.878;4.584;2023-06-10T15:48:21;40.10;33.70
37782;DHT22;23621;50.878;4.584;2023-06-10T15:51:09;41.50;32.40
37782;DHT22;23621;50.878;4.584;2023-06-10T15:53:56;42.60;31.30
37782;DHT22;23621;50.878;4.584;2023-06-10T15:56:44;43.70;31.30
37782;DHT22;23621;50.878;4.584;2023-06-10T15:59:31;44.60;30.00
37782;DHT22;23621;50.878;4.584;2023-06-10T16:02:19;45.40;29.10
37782;DHT22;23621;50.878;4.584;2023-06-10T16:05:08;46.00;28.50
37782;DHT22;23621;50.878;4.584;2023-06-10T16:07:57;46.40;28.10
37782;DHT22;23621;50.878;4.584;2023-06-10T16:10:49;46.80;27.90
37782;DHT22;23621;50.878;4.584;2023-06-10T16:13:37;47.10;27.60
37782;DHT22;23621;50.878;4.584;2023-06-10T16:16:28;47.40;27.60
37782;DHT22;23621;50.878;4.584;2023-06-10T16:19:17;47.60;27.00
37782;DHT22;23621;50.878;4.584;2023-06-10T16:22:04;47.70;26.80
37782;DHT22;23621;50.878;4.584;2023-06-10T16:24:56;47.90;26.50
37782;DHT22;23621;50.878;4.584;2023-06-10T16:27:44;48.00;26.60
37782;DHT22;23621;50.878;4.584;2023-06-10T16:30:31;48.20;26.20
37782;DHT22;23621;50.878;4.584;2023-06-10T16:33:19;48.40;25.50
37782;DHT22;23621;50.878;4.584;2023-06-10T16:36:07;48.70;25.60
37782;DHT22;23621;50.878;4.584;2023-06-10T16:38:54;49.00;25.70
37782;DHT22;23621;50.878;4.584;2023-06-10T16:41:41;49.10;25.20
37782;DHT22;23621;50.878;4.584;2023-06-10T16:44:29;49.10;24.90
37782;DHT22;23621;50.878;4.584;2023-06-10T16:47:16;49.10;24.70
37782;DHT22;23621;50.878;4.584;2023-06-10T16:50:05;49.10;24.70
37782;DHT22;23621;50.878;4.584;2023-06-10T16:52:52;49.00;24.90
37782;DHT22;23621;50.878;4.584;2023-06-10T16:55:39;49.00;25.30
37782;DHT22;23621;50.878;4.584;2023-06-10T16:58:28;49.10;24.60
37782;DHT22;23621;50.878;4.584;2023-06-10T17:01:15;49.30;24.20
37782;DHT22;23621;50.878;4.584;2023-06-10T17:04:05;49.40;24.10
37782;DHT22;23621;50.878;4.584;2023-06-10T17:06:52;49.40;24.30
37782;DHT22;23621;50.878;4.584;2023-06-10T17:09:41;49.40;24.20
37782;DHT22;23621;50.878;4.584;2023-06-10T17:12:35;49.40;24.10
37782;DHT22;23621;50.878;4.584;2023-06-10T17:15:22;49.50;24.10
37782;DHT22;23621;50.878;4.584;2023-06-10T17:18:12;49.60;23.90
37782;DHT22;23621;50.878;4.584;2023-06-10T17:21:06;49.60;24.10
37782;DHT22;23621;50.878;4.584;2023-06-10T17:23:53;49.40;24.20
37782;DHT22;23621;50.878;4.584;2023-06-10T17:26:41;49.30;24.00
37782;DHT22;23621;50.878;4.584;2023-06-10T17:29:31;49.20;24.00
37782;DHT22;23621;50.878;4.584;2023-06-10T17:32:19;49.20;23.80
37782;DHT22;23621;50.878;4.584;2023-06-10T17:35:08;49.20;24.70
37782;DHT22;23621;50.878;4.584;2023-06-10T17:37:55;49.10;24.10
37782;DHT22;23621;50.878;4.584;2023-06-10T17:40:43;49.10;24.00
37782;DHT22;23621;50.878;4.584;2023-06-10T17:43:31;48.90;24.10
37782;DHT22;23621;50.878;4.584;2023-06-10T17:46:23;48.70;24.30